sensor_id;sensor_type;location;lat;lon;timestamp;P1;durP1;ratioP1;P2;durP2;ratioP2
52360;SDS011;38294;42.966;1.608;2023-01-31T04:02:54;20.88;;;10.20;;
52360;SDS011;38294;42.966;1.608;2023-01-31T04:05:28;21.08;;;9.75;;
52360;SDS011;38294;42.966;1.608;2023-01-31T04:07:57;18.30;;;8.70;;
52360;SDS011;38294;42.966;1.608;2023-01-31T04:10:24;15.73;;;7.68;;
52360;SDS011;38294;42.966;1.608;2023-01-31T04:12:50;16.63;;;8.77;;
52360;SDS011;38294;42.966;1.608;2023-01-31T04:15:17;16.40;;;7.93;;
52360;SDS011;38294;42.966;1.608;2023-01-31T04:17:43;20.00;;;9.63;;
52360;SDS011;38294;42.966;1.608;2023-01-31T04:20:09;29.23;;;13.52;;
52360;SDS011;38294;42.966;1.608;2023-01-31T04:22:36;20.85;;;10.20;;
52360;SDS011;38294;42.966;1.608;2023-01-31T04:25:01;16.88;;;7.82;;
52360;SDS011;38294;42.966;1.608;2023-01-31T04:27:27;13.32;;;7.95;;
52360;SDS011;38294;42.966;1.608;2023-01-31T04:29:53;18.27;;;8.18;;
52360;SDS011;38294;42.966;1.608;2023-01-31T04:32:18;14.68;;;7.57;;
52360;SDS011;38294;42.966;1.608;2023-01-31T04:34:44;15.40;;;7.57;;
52360;SDS011;38294;42.966;1.608;2023-01-31T04:37:09;14.77;;;6.65;;
52360;SDS011;38294;42.966;1.608;2023-01-31T04:39:35;13.07;;;6.47;;
52360;SDS011;38294;42.966;1.608;2023-01-31T04:42:00;18.42;;;8.95;;
52360;SDS011;38294;42.966;1.608;2023-01-31T04:44:26;14.82;;;8.32;;
52360;SDS011;38294;42.966;1.608;2023-01-31T04:46:52;15.55;;;7.80;;
52360;SDS011;38294;42.966;1.608;2023-01-31T04:49:18;15.38;;;7.55;;
52360;SDS011;38294;42.966;1.608;2023-01-31T04:51:43;14.43;;;7.80;;
52360;SDS011;38294;42.966;1.608;2023-01-31T04:54:09;14.00;;;6.93;;
52360;SDS011;38294;42.966;1.608;2023-01-31T04:56:35;15.60;;;7.03;;
52360;SDS011;38294;42.966;1.608;2023-01-31T04:59:00;15.65;;;7.93;;
52360;SDS011;38294;42.966;1.608;2023-01-31T05:01:26;12.50;;;6.47;;
52360;SDS011;38294;42.966;1.608;2023-01-31T05:03:53;15.38;;;7.80;;
52360;SDS011;38294;42.966;1.608;2023-01-31T05:06:19;17.13;;;8.73;;
52360;SDS011;38294;42.966;1.608;2023-01-31T05:08:44;11.50;;;6.15;;
52360;SDS011;38294;42.966;1.608;2023-01-31T05:11:10;15.05;;;7.25;;
52360;SDS011;38294;42.966;1.608;2023-01-31T05:13:35;14.75;;;7.85;;
52360;SDS011;38294;42.966;1.608;2023-01-31T05:16:06;13.48;;;7.95;;
52360;SDS011;38294;42.966;1.608;2023-01-31T05:18:33;16.85;;;7.22;;
52360;SDS011;38294;42.966;1.608;2023-01-31T05:20:59;19.30;;;8.02;;
52360;SDS011;38294;42.966;1.608;2023-01-31T05:23:26;17.67;;;8.60;;
52360;SDS011;38294;42.966;1.608;2023-01-31T05:25:52;17.15;;;8.10;;
52360;SDS011;38294;42.966;1.608;2023-01-31T05:28:17;14.40;;;7.20;;
52360;SDS011;38294;42.966;1.608;2023-01-31T05:30:43;16.70;;;7.70;;
52360;SDS011;38294;42.966;1.608;2023-01-31T05:33:09;12.60;;;6.93;;
52360;SDS011;38294;42.966;1.608;2023-01-31T05:35:34;11.68;;;6.75;;
52360;SDS011;38294;42.966;1.608;2023-01-31T05:38:01;12.57;;;6.78;;
52360;SDS011;38294;42.966;1.608;2023-01-31T05:40:27;12.52;;;6.75;;
52360;SDS011;38294;42.966;1.608;2023-01-31T05:42:53;12.05;;;6.28;;
52360;SDS011;38294;42.966;1.608;2023-01-31T05:45:20;13.60;;;6.63;;
52360;SDS011;38294;42.966;1.608;2023-01-31T05:47:46;13.07;;;7.25;;
52360;SDS011;38294;42.966;1.608;2023-01-31T05:50:12;13.48;;;7.32;;
52360;SDS011;38294;42.966;1.608;2023-01-31T05:52:38;16.92;;;7.45;;
52360;SDS011;38294;42.966;1.608;2023-01-31T05:55:04;17.67;;;7.50;;
52360;SDS011;38294;42.966;1.608;2023-01-31T05:57:30;15.23;;;7.65;;
52360;SDS011;38294;42.966;1.608;2023-01-31T05:59:56;14.45;;;6.70;;
52360;SDS011;38294;42.966;1.608;2023-01-31T06:02:21;15.45;;;7.07;;
52360;SDS011;38294;42.966;1.608;2023-01-31T06:04:47;15.43;;;7.53;;
52360;SDS011;38294;42.966;1.608;2023-01-31T06:07:13;15.48;;;7.20;;
52360;SDS011;38294;42.966;1.608;2023-01-31T06:09:38;13.68;;;7.10;;
52360;SDS011;38294;42.966;1.608;2023-01-31T06:12:06;14.15;;;6.85;;
52360;SDS011;38294;42.966;1.608;2023-01-31T06:14:37;12.65;;;7.55;;
52360;SDS011;38294;42.966;1.608;2023-01-31T06:17:02;13.82;;;7.07;;
52360;SDS011;38294;42.966;1.608;2023-01-31T06:19:28;14.45;;;7.30;;
52360;SDS011;38294;42.966;1.608;2023-01-31T06:21:54;9.95;;;5.88;;
52360;SDS011;38294;42.966;1.608;2023-01-31T06:24:19;10.45;;;5.93;;
52360;SDS011;38294;42.966;1.608;2023-01-31T06:26:45;10.75;;;6.38;;
52360;SDS011;38294;42.966;1.608;2023-01-31T06:29:11;12.13;;;6.00;;
52360;SDS011;38294;42.966;1.608;2023-01-31T06:31:37;10.55;;;5.70;;
52360;SDS011;38294;42.966;1.608;2023-01-31T06:34:02;12.45;;;5.85;;
52360;SDS011;38294;42.966;1.608;2023-01-31T06:36:30;10.55;;;6.10;;
52360;SDS011;38294;42.966;1.608;2023-01-31T06:38:56;14.27;;;6.90;;
52360;SDS011;38294;42.966;1.608;2023-01-31T06:41:21;13.13;;;7.20;;
52360;SDS011;38294;42.966;1.608;2023-01-31T06:43:47;14.68;;;7.60;;
52360;SDS011;38294;42.966;1.608;2023-01-31T06:46:13;11.85;;;6.93;;
52360;SDS011;38294;42.966;1.608;2023-01-31T06:48:39;12.45;;;6.40;;
52360;SDS011;38294;42.966;1.608;2023-01-31T06:51:04;15.30;;;6.22;;
52360;SDS011;38294;42.966;1.608;2023-01-31T06:53:30;11.15;;;5.85;;
52360;SDS011;38294;42.966;1.608;2023-01-31T06:55:55;13.65;;;6.65;;
52360;SDS011;38294;42.966;1.608;2023-01-31T06:58:21;12.05;;;6.72;;
52360;SDS011;38294;42.966;1.608;2023-01-31T07:00:47;10.23;;;6.30;;
52360;SDS011;38294;42.966;1.608;2023-01-31T07:03:13;12.80;;;6.93;;
52360;SDS011;38294;42.966;1.608;2023-01-31T07:05:38;10.60;;;5.78;;
52360;SDS011;38294;42.966;1.608;2023-01-31T07:08:04;11.88;;;6.50;;
52360;SDS011;38294;42.966;1.608;2023-01-31T07:10:30;14.48;;;6.43;;
52360;SDS011;38294;42.966;1.608;2023-01-31T07:12:55;12.05;;;6.30;;
52360;SDS011;38294;42.966;1.608;2023-01-31T07:15:21;9.68;;;5.30;;
52360;SDS011;38294;42.966;1.608;2023-01-31T07:17:46;10.07;;;4.95;;
52360;SDS011;38294;42.966;1.608;2023-01-31T07:20:12;8.60;;;5.50;;
52360;SDS011;38294;42.966;1.608;2023-01-31T07:22:38;15.75;;;5.65;;
52360;SDS011;38294;42.966;1.608;2023-01-31T07:25:03;12.55;;;5.68;;
52360;SDS011;38294;42.966;1.608;2023-01-31T07:27:29;9.88;;;5.70;;
52360;SDS011;38294;42.966;1.608;2023-01-31T07:29:55;11.43;;;5.93;;
52360;SDS011;38294;42.966;1.608;2023-01-31T07:32:20;13.95;;;6.18;;
52360;SDS011;38294;42.966;1.608;2023-01-31T07:34:46;8.38;;;5.15;;
52360;SDS011;38294;42.966;1.608;2023-01-31T07:37:11;14.75;;;6.18;;
52360;SDS011;38294;42.966;1.608;2023-01-31T07:39:37;11.90;;;5.95;;
52360;SDS011;38294;42.966;1.608;2023-01-31T07:42:03;13.35;;;6.90;;
52360;SDS011;38294;42.966;1.608;2023-01-31T07:44:28;14.63;;;5.72;;
52360;SDS011;38294;42.966;1.608;2023-01-31T07:46:54;12.45;;;5.68;;
52360;SDS011;38294;42.966;1.608;2023-01-31T07:49:20;11.65;;;5.65;;
52360;SDS011;38294;42.966;1.608;2023-01-31T07:51:46;11.30;;;5.40;;
52360;SDS011;38294;42.966;1.608;2023-01-31T07:54:11;10.45;;;6.10;;
52360;SDS011;38294;42.966;1.608;2023-01-31T07:56:37;13.85;;;6.40;;
52360;SDS011;38294;42.966;1.608;2023-01-31T07:59:03;9.50;;;5.47;;
52360;SDS011;38294;42.966;1.608;2023-01-31T08:01:29;9.90;;;5.18;;
52360;SDS011;38294;42.966;1.608;2023-01-31T08:04:14;8.98;;;5.07;;
52360;SDS011;38294;42.966;1.608;2023-01-31T08:06:41;7.57;;;4.93;;
52360;SDS011;38294;42.966;1.608;2023-01-31T08:09:07;7.45;;;5.38;;
52360;SDS011;38294;42.966;1.608;2023-01-31T08:11:33;9.45;;;5.13;;
52360;SDS011;38294;42.966;1.608;2023-01-31T08:13:59;11.10;;;5.28;;
52360;SDS011;38294;42.966;1.608;2023-01-31T08:16:24;11.02;;;6.82;;
52360;SDS011;38294;42.966;1.608;2023-01-31T08:18:51;17.08;;;7.30;;
52360;SDS011;38294;42.966;1.608;2023-01-31T08:21:17;13.85;;;7.10;;
52360;SDS011;38294;42.966;1.608;2023-01-31T08:23:43;9.98;;;6.00;;
52360;SDS011;38294;42.966;1.608;2023-01-31T08:26:13;12.63;;;6.70;;
52360;SDS011;38294;42.966;1.608;2023-01-31T08:28:45;19.15;;;5.90;;
52360;SDS011;38294;42.966;1.608;2023-01-31T08:31:21;14.88;;;5.88;;
52360;SDS011;38294;42.966;1.608;2023-01-31T08:33:48;11.07;;;6.55;;
52360;SDS011;38294;42.966;1.608;2023-01-31T08:36:20;12.13;;;6.30;;
52360;SDS011;38294;42.966;1.608;2023-01-31T08:38:50;11.35;;;5.88;;
52360;SDS011;38294;42.966;1.608;2023-01-31T08:41:19;10.98;;;5.32;;
52360;SDS011;38294;42.966;1.608;2023-01-31T08:43:46;10.95;;;5.15;;
52360;SDS011;38294;42.966;1.608;2023-01-31T08:46:15;8.43;;;4.53;;
52360;SDS011;38294;42.966;1.608;2023-01-31T08:48:41;8.40;;;4.65;;
52360;SDS011;38294;42.966;1.608;2023-01-31T08:51:08;10.25;;;4.57;;
52360;SDS011;38294;42.966;1.608;2023-01-31T08:53:36;16.25;;;5.47;;
52360;SDS011;38294;42.966;1.608;2023-01-31T08:56:04;9.57;;;6.07;;
52360;SDS011;38294;42.966;1.608;2023-01-31T08:58:40;15.07;;;6.90;;
52360;SDS011;38294;42.966;1.608;2023-01-31T09:01:08;12.52;;;6.68;;
52360;SDS011;38294;42.966;1.608;2023-01-31T09:03:41;14.48;;;7.97;;
52360;SDS011;38294;42.966;1.608;2023-01-31T09:06:09;17.33;;;9.45;;
52360;SDS011;38294;42.966;1.608;2023-01-31T09:08:39;16.55;;;8.70;;
52360;SDS011;38294;42.966;1.608;2023-01-31T09:11:08;17.05;;;8.25;;
52360;SDS011;38294;42.966;1.608;2023-01-31T09:13:34;14.90;;;8.07;;
52360;SDS011;38294;42.966;1.608;2023-01-31T09:16:04;13.48;;;8.02;;
52360;SDS011;38294;42.966;1.608;2023-01-31T09:18:32;14.50;;;8.05;;
52360;SDS011;38294;42.966;1.608;2023-01-31T09:21:15;15.27;;;7.80;;
52360;SDS011;38294;42.966;1.608;2023-01-31T09:23:42;17.80;;;8.93;;
52360;SDS011;38294;42.966;1.608;2023-01-31T09:26:09;13.43;;;7.75;;
52360;SDS011;38294;42.966;1.608;2023-01-31T09:28:36;13.43;;;7.40;;
52360;SDS011;38294;42.966;1.608;2023-01-31T09:31:03;13.30;;;7.00;;
52360;SDS011;38294;42.966;1.608;2023-01-31T09:33:31;10.57;;;6.30;;
52360;SDS011;38294;42.966;1.608;2023-01-31T09:35:58;14.82;;;7.50;;
52360;SDS011;38294;42.966;1.608;2023-01-31T09:38:26;13.10;;;6.38;;
52360;SDS011;38294;42.966;1.608;2023-01-31T09:40:52;11.27;;;5.45;;
52360;SDS011;38294;42.966;1.608;2023-01-31T09:43:20;9.82;;;5.32;;
52360;SDS011;38294;42.966;1.608;2023-01-31T09:45:50;11.83;;;5.30;;
52360;SDS011;38294;42.966;1.608;2023-01-31T09:48:21;7.35;;;5.15;;
52360;SDS011;38294;42.966;1.608;2023-01-31T09:50:53;11.23;;;5.65;;
52360;SDS011;38294;42.966;1.608;2023-01-31T09:53:21;7.78;;;4.78;;
52360;SDS011;38294;42.966;1.608;2023-01-31T10:01:18;10.95;;;4.82;;
52360;SDS011;38294;42.966;1.608;2023-01-31T10:04:28;11.25;;;4.65;;
52360;SDS011;38294;42.966;1.608;2023-01-31T10:06:35;7.93;;;4.30;;
52360;SDS011;38294;42.966;1.608;2023-01-31T10:09:16;7.35;;;4.00;;
52360;SDS011;38294;42.966;1.608;2023-01-31T10:11:59;5.85;;;3.67;;
52360;SDS011;38294;42.966;1.608;2023-01-31T10:14:40;8.13;;;3.88;;
52360;SDS011;38294;42.966;1.608;2023-01-31T10:20:18;7.85;;;4.60;;
52360;SDS011;38294;42.966;1.608;2023-01-31T10:23:01;9.57;;;3.90;;
52360;SDS011;38294;42.966;1.608;2023-01-31T10:25:59;5.97;;;4.03;;
52360;SDS011;38294;42.966;1.608;2023-01-31T10:34:22;8.65;;;4.70;;
52360;SDS011;38294;42.966;1.608;2023-01-31T10:39:39;7.50;;;4.10;;
52360;SDS011;38294;42.966;1.608;2023-01-31T10:42:25;5.90;;;3.78;;
52360;SDS011;38294;42.966;1.608;2023-01-31T10:45:15;6.47;;;2.80;;
52360;SDS011;38294;42.966;1.608;2023-01-31T10:57:43;4.88;;;2.88;;
52360;SDS011;38294;42.966;1.608;2023-01-31T11:00:19;4.47;;;2.67;;
52360;SDS011;38294;42.966;1.608;2023-01-31T11:02:50;2.97;;;2.22;;
52360;SDS011;38294;42.966;1.608;2023-01-31T11:05:20;6.60;;;2.85;;
52360;SDS011;38294;42.966;1.608;2023-01-31T11:07:48;3.92;;;2.47;;
52360;SDS011;38294;42.966;1.608;2023-01-31T11:10:22;3.70;;;2.63;;
52360;SDS011;38294;42.966;1.608;2023-01-31T11:12:58;7.40;;;2.50;;
52360;SDS011;38294;42.966;1.608;2023-01-31T11:15:28;4.43;;;2.78;;
52360;SDS011;38294;42.966;1.608;2023-01-31T11:18:00;3.80;;;2.30;;
52360;SDS011;38294;42.966;1.608;2023-01-31T11:20:34;6.72;;;2.55;;
52360;SDS011;38294;42.966;1.608;2023-01-31T11:23:02;3.90;;;2.45;;
52360;SDS011;38294;42.966;1.608;2023-01-31T11:25:31;4.72;;;3.08;;
52360;SDS011;38294;42.966;1.608;2023-01-31T11:28:02;5.97;;;3.15;;
52360;SDS011;38294;42.966;1.608;2023-01-31T11:30:40;8.32;;;3.33;;
52360;SDS011;38294;42.966;1.608;2023-01-31T11:33:06;3.50;;;2.50;;
52360;SDS011;38294;42.966;1.608;2023-01-31T11:35:32;5.03;;;2.28;;
52360;SDS011;38294;42.966;1.608;2023-01-31T11:38:07;3.75;;;2.70;;
52360;SDS011;38294;42.966;1.608;2023-01-31T11:40:46;5.88;;;2.75;;
52360;SDS011;38294;42.966;1.608;2023-01-31T11:45:44;6.28;;;3.10;;
52360;SDS011;38294;42.966;1.608;2023-01-31T11:50:42;5.70;;;3.67;;
52360;SDS011;38294;42.966;1.608;2023-01-31T11:53:20;5.68;;;3.47;;
52360;SDS011;38294;42.966;1.608;2023-01-31T11:55:47;5.20;;;2.17;;
52360;SDS011;38294;42.966;1.608;2023-01-31T12:00:54;5.32;;;3.05;;
52360;SDS011;38294;42.966;1.608;2023-01-31T12:03:22;4.78;;;3.08;;
52360;SDS011;38294;42.966;1.608;2023-01-31T12:05:49;4.05;;;2.50;;
52360;SDS011;38294;42.966;1.608;2023-01-31T12:08:33;4.13;;;2.30;;
52360;SDS011;38294;42.966;1.608;2023-01-31T12:11:03;4.07;;;2.58;;
52360;SDS011;38294;42.966;1.608;2023-01-31T12:13:45;4.53;;;2.50;;
52360;SDS011;38294;42.966;1.608;2023-01-31T12:16:17;2.15;;;1.77;;
52360;SDS011;38294;42.966;1.608;2023-01-31T12:26:20;2.33;;;1.92;;
52360;SDS011;38294;42.966;1.608;2023-01-31T12:29:13;2.70;;;1.65;;
52360;SDS011;38294;42.966;1.608;2023-01-31T12:38:12;2.22;;;1.60;;
52360;SDS011;38294;42.966;1.608;2023-01-31T12:41:17;1.50;;;1.40;;
52360;SDS011;38294;42.966;1.608;2023-01-31T12:46:41;2.47;;;1.70;;
52360;SDS011;38294;42.966;1.608;2023-01-31T12:52:14;1.92;;;1.60;;
52360;SDS011;38294;42.966;1.608;2023-01-31T12:55:02;3.55;;;1.85;;
52360;SDS011;38294;42.966;1.608;2023-01-31T13:05:50;2.40;;;1.30;;
52360;SDS011;38294;42.966;1.608;2023-01-31T13:08:21;1.58;;;1.48;;
52360;SDS011;38294;42.966;1.608;2023-01-31T13:10:51;3.20;;;1.48;;
52360;SDS011;38294;42.966;1.608;2023-01-31T13:13:27;1.27;;;1.05;;
52360;SDS011;38294;42.966;1.608;2023-01-31T13:16:09;1.52;;;1.20;;
52360;SDS011;38294;42.966;1.608;2023-01-31T13:18:40;2.22;;;1.50;;
52360;SDS011;38294;42.966;1.608;2023-01-31T13:21:11;1.90;;;1.30;;
52360;SDS011;38294;42.966;1.608;2023-01-31T13:23:42;1.40;;;1.17;;
52360;SDS011;38294;42.966;1.608;2023-01-31T13:28:45;1.08;;;1.05;;
52360;SDS011;38294;42.966;1.608;2023-01-31T13:31:18;1.42;;;1.10;;
52360;SDS011;38294;42.966;1.608;2023-01-31T13:33:50;1.20;;;1.10;;
52360;SDS011;38294;42.966;1.608;2023-01-31T13:36:23;4.13;;;1.35;;
52360;SDS011;38294;42.966;1.608;2023-01-31T13:38:53;1.35;;;1.25;;
52360;SDS011;38294;42.966;1.608;2023-01-31T13:43:54;1.27;;;1.17;;
52360;SDS011;38294;42.966;1.608;2023-01-31T13:47:22;1.73;;;1.25;;
52360;SDS011;38294;42.966;1.608;2023-01-31T13:51:57;2.58;;;1.40;;
52360;SDS011;38294;42.966;1.608;2023-01-31T13:54:39;1.30;;;1.20;;
52360;SDS011;38294;42.966;1.608;2023-01-31T13:57:17;9.25;;;1.65;;
52360;SDS011;38294;42.966;1.608;2023-01-31T13:59:53;1.17;;;1.10;;
52360;SDS011;38294;42.966;1.608;2023-01-31T14:04:50;1.63;;;1.17;;
52360;SDS011;38294;42.966;1.608;2023-01-31T14:07:20;2.08;;;1.10;;
52360;SDS011;38294;42.966;1.608;2023-01-31T14:14:50;7.57;;;3.90;;
52360;SDS011;38294;42.966;1.608;2023-01-31T14:22:18;2.17;;;1.45;;
52360;SDS011;38294;42.966;1.608;2023-01-31T14:27:32;3.58;;;1.45;;
52360;SDS011;38294;42.966;1.608;2023-01-31T14:37:41;1.30;;;1.20;;
52360;SDS011;38294;42.966;1.608;2023-01-31T14:40:28;9.65;;;1.75;;
52360;SDS011;38294;42.966;1.608;2023-01-31T14:48:26;1.63;;;1.20;;
52360;SDS011;38294;42.966;1.608;2023-01-31T14:53:46;2.83;;;1.35;;
52360;SDS011;38294;42.966;1.608;2023-01-31T14:58:41;2.30;;;1.23;;
52360;SDS011;38294;42.966;1.608;2023-01-31T15:01:09;3.75;;;2.00;;
52360;SDS011;38294;42.966;1.608;2023-01-31T15:03:49;1.75;;;1.20;;
52360;SDS011;38294;42.966;1.608;2023-01-31T15:06:23;1.70;;;1.17;;
52360;SDS011;38294;42.966;1.608;2023-01-31T15:09:15;1.65;;;1.20;;
52360;SDS011;38294;42.966;1.608;2023-01-31T15:11:48;1.55;;;1.10;;
52360;SDS011;38294;42.966;1.608;2023-01-31T15:17:02;1.48;;;1.20;;
52360;SDS011;38294;42.966;1.608;2023-01-31T15:20:03;1.40;;;1.30;;
52360;SDS011;38294;42.966;1.608;2023-01-31T15:22:30;1.88;;;1.35;;
52360;SDS011;38294;42.966;1.608;2023-01-31T15:25:05;5.38;;;2.45;;
52360;SDS011;38294;42.966;1.608;2023-01-31T15:27:42;3.00;;;1.73;;
52360;SDS011;38294;42.966;1.608;2023-01-31T15:30:21;1.25;;;1.13;;
52360;SDS011;38294;42.966;1.608;2023-01-31T15:32:50;1.25;;;1.15;;
52360;SDS011;38294;42.966;1.608;2023-01-31T15:38:14;1.95;;;1.67;;
52360;SDS011;38294;42.966;1.608;2023-01-31T15:40:46;1.30;;;1.20;;
52360;SDS011;38294;42.966;1.608;2023-01-31T15:43:16;2.42;;;1.55;;
52360;SDS011;38294;42.966;1.608;2023-01-31T15:45:42;1.50;;;1.40;;
52360;SDS011;38294;42.966;1.608;2023-01-31T15:48:12;2.97;;;1.58;;
52360;SDS011;38294;42.966;1.608;2023-01-31T15:50:48;2.05;;;1.20;;
52360;SDS011;38294;42.966;1.608;2023-01-31T15:53:20;1.38;;;1.25;;
52360;SDS011;38294;42.966;1.608;2023-01-31T15:55:49;3.85;;;1.42;;
52360;SDS011;38294;42.966;1.608;2023-01-31T15:58:20;1.40;;;1.30;;
52360;SDS011;38294;42.966;1.608;2023-01-31T16:00:49;1.42;;;1.33;;
52360;SDS011;38294;42.966;1.608;2023-01-31T16:03:18;1.20;;;1.10;;
52360;SDS011;38294;42.966;1.608;2023-01-31T16:05:47;2.08;;;1.67;;
52360;SDS011;38294;42.966;1.608;2023-01-31T16:08:19;2.30;;;1.70;;
52360;SDS011;38294;42.966;1.608;2023-01-31T16:10:48;3.30;;;2.03;;
52360;SDS011;38294;42.966;1.608;2023-01-31T16:13:14;3.10;;;2.00;;
52360;SDS011;38294;42.966;1.608;2023-01-31T16:15:40;5.18;;;2.50;;
52360;SDS011;38294;42.966;1.608;2023-01-31T16:18:08;3.38;;;2.30;;
52360;SDS011;38294;42.966;1.608;2023-01-31T16:20:37;2.10;;;1.90;;
52360;SDS011;38294;42.966;1.608;2023-01-31T16:23:16;2.00;;;1.80;;
52360;SDS011;38294;42.966;1.608;2023-01-31T16:25:53;2.85;;;2.10;;
52360;SDS011;38294;42.966;1.608;2023-01-31T16:28:29;2.70;;;2.03;;
52360;SDS011;38294;42.966;1.608;2023-01-31T16:31:05;3.17;;;2.40;;
52360;SDS011;38294;42.966;1.608;2023-01-31T16:33:37;4.53;;;2.45;;
52360;SDS011;38294;42.966;1.608;2023-01-31T16:36:05;4.43;;;2.40;;
52360;SDS011;38294;42.966;1.608;2023-01-31T16:38:36;4.82;;;2.60;;
52360;SDS011;38294;42.966;1.608;2023-01-31T16:41:05;4.15;;;2.70;;
52360;SDS011;38294;42.966;1.608;2023-01-31T16:43:38;4.60;;;2.70;;
52360;SDS011;38294;42.966;1.608;2023-01-31T16:46:34;4.82;;;3.03;;
52360;SDS011;38294;42.966;1.608;2023-01-31T16:49:05;6.78;;;3.42;;
52360;SDS011;38294;42.966;1.608;2023-01-31T16:51:42;13.80;;;3.75;;
52360;SDS011;38294;42.966;1.608;2023-01-31T16:56:47;5.53;;;3.53;;
52360;SDS011;38294;42.966;1.608;2023-01-31T17:02:20;5.50;;;3.30;;
52360;SDS011;38294;42.966;1.608;2023-01-31T17:04:49;5.57;;;3.05;;
52360;SDS011;38294;42.966;1.608;2023-01-31T17:07:22;5.25;;;2.95;;
52360;SDS011;38294;42.966;1.608;2023-01-31T17:09:48;7.47;;;3.60;;
52360;SDS011;38294;42.966;1.608;2023-01-31T17:12:20;6.80;;;3.47;;
52360;SDS011;38294;42.966;1.608;2023-01-31T17:14:48;7.53;;;3.42;;
52360;SDS011;38294;42.966;1.608;2023-01-31T17:17:16;7.68;;;3.83;;
52360;SDS011;38294;42.966;1.608;2023-01-31T17:19:42;6.07;;;3.20;;
52360;SDS011;38294;42.966;1.608;2023-01-31T17:22:09;4.68;;;2.97;;
52360;SDS011;38294;42.966;1.608;2023-01-31T17:24:37;4.53;;;3.22;;
52360;SDS011;38294;42.966;1.608;2023-01-31T17:27:02;4.78;;;2.97;;
52360;SDS011;38294;42.966;1.608;2023-01-31T17:29:28;4.55;;;3.00;;
52360;SDS011;38294;42.966;1.608;2023-01-31T17:31:54;14.05;;;6.40;;
52360;SDS011;38294;42.966;1.608;2023-01-31T17:34:19;12.93;;;6.93;;
52360;SDS011;38294;42.966;1.608;2023-01-31T17:36:45;20.88;;;7.00;;
52360;SDS011;38294;42.966;1.608;2023-01-31T17:39:10;17.58;;;8.40;;
52360;SDS011;38294;42.966;1.608;2023-01-31T17:41:36;19.35;;;7.25;;
52360;SDS011;38294;42.966;1.608;2023-01-31T17:44:05;9.93;;;5.68;;
52360;SDS011;38294;42.966;1.608;2023-01-31T17:46:30;13.18;;;5.93;;
52360;SDS011;38294;42.966;1.608;2023-01-31T17:48:56;19.60;;;9.80;;
52360;SDS011;38294;42.966;1.608;2023-01-31T17:51:22;18.48;;;7.78;;
52360;SDS011;38294;42.966;1.608;2023-01-31T17:53:48;17.58;;;7.57;;
52360;SDS011;38294;42.966;1.608;2023-01-31T17:56:15;14.75;;;7.90;;
52360;SDS011;38294;42.966;1.608;2023-01-31T17:58:41;15.65;;;7.13;;
52360;SDS011;38294;42.966;1.608;2023-01-31T18:01:07;16.05;;;6.60;;
52360;SDS011;38294;42.966;1.608;2023-01-31T18:03:34;12.27;;;5.75;;
52360;SDS011;38294;42.966;1.608;2023-01-31T18:06:04;10.00;;;5.80;;
52360;SDS011;38294;42.966;1.608;2023-01-31T18:08:31;8.43;;;5.10;;
52360;SDS011;38294;42.966;1.608;2023-01-31T18:11:07;19.88;;;9.15;;
52360;SDS011;38294;42.966;1.608;2023-01-31T18:13:35;15.27;;;6.57;;
52360;SDS011;38294;42.966;1.608;2023-01-31T18:16:02;13.30;;;6.18;;
52360;SDS011;38294;42.966;1.608;2023-01-31T18:18:29;12.45;;;6.30;;
52360;SDS011;38294;42.966;1.608;2023-01-31T18:20:55;12.63;;;6.35;;
52360;SDS011;38294;42.966;1.608;2023-01-31T18:23:20;13.57;;;7.03;;
52360;SDS011;38294;42.966;1.608;2023-01-31T18:25:46;14.02;;;7.32;;
52360;SDS011;38294;42.966;1.608;2023-01-31T18:28:11;13.63;;;6.93;;
52360;SDS011;38294;42.966;1.608;2023-01-31T18:30:37;12.43;;;6.72;;
52360;SDS011;38294;42.966;1.608;2023-01-31T18:33:02;12.00;;;6.05;;
52360;SDS011;38294;42.966;1.608;2023-01-31T18:35:28;11.80;;;6.07;;
52360;SDS011;38294;42.966;1.608;2023-01-31T18:37:53;15.95;;;6.93;;
52360;SDS011;38294;42.966;1.608;2023-01-31T18:40:19;11.80;;;5.78;;
52360;SDS011;38294;42.966;1.608;2023-01-31T18:42:45;9.60;;;5.43;;
52360;SDS011;38294;42.966;1.608;2023-01-31T18:45:11;13.43;;;5.63;;
52360;SDS011;38294;42.966;1.608;2023-01-31T18:47:36;10.55;;;5.10;;
52360;SDS011;38294;42.966;1.608;2023-01-31T18:50:02;11.70;;;5.68;;
52360;SDS011;38294;42.966;1.608;2023-01-31T18:52:29;10.55;;;5.15;;
52360;SDS011;38294;42.966;1.608;2023-01-31T18:54:54;10.52;;;4.90;;
52360;SDS011;38294;42.966;1.608;2023-01-31T18:57:20;16.15;;;4.78;;
52360;SDS011;38294;42.966;1.608;2023-01-31T18:59:45;8.93;;;4.85;;
52360;SDS011;38294;42.966;1.608;2023-01-31T19:02:11;10.70;;;5.80;;
52360;SDS011;38294;42.966;1.608;2023-01-31T19:04:36;19.58;;;6.85;;
52360;SDS011;38294;42.966;1.608;2023-01-31T19:07:02;16.33;;;6.85;;
52360;SDS011;38294;42.966;1.608;2023-01-31T19:09:28;20.75;;;8.02;;
52360;SDS011;38294;42.966;1.608;2023-01-31T19:11:54;18.50;;;7.68;;
52360;SDS011;38294;42.966;1.608;2023-01-31T19:14:19;14.52;;;6.80;;
52360;SDS011;38294;42.966;1.608;2023-01-31T19:16:45;15.45;;;7.88;;
52360;SDS011;38294;42.966;1.608;2023-01-31T19:19:13;28.15;;;11.23;;
52360;SDS011;38294;42.966;1.608;2023-01-31T19:21:39;27.75;;;13.43;;
52360;SDS011;38294;42.966;1.608;2023-01-31T19:24:06;39.20;;;17.25;;
52360;SDS011;38294;42.966;1.608;2023-01-31T19:26:34;27.05;;;13.73;;
52360;SDS011;38294;42.966;1.608;2023-01-31T19:29:00;24.15;;;11.73;;
52360;SDS011;38294;42.966;1.608;2023-01-31T19:31:27;23.27;;;11.55;;
52360;SDS011;38294;42.966;1.608;2023-01-31T19:34:00;22.95;;;11.73;;
52360;SDS011;38294;42.966;1.608;2023-01-31T19:36:31;23.15;;;11.25;;
52360;SDS011;38294;42.966;1.608;2023-01-31T19:38:59;21.90;;;10.90;;
52360;SDS011;38294;42.966;1.608;2023-01-31T19:41:26;19.48;;;9.90;;
52360;SDS011;38294;42.966;1.608;2023-01-31T19:43:53;23.73;;;11.73;;
52360;SDS011;38294;42.966;1.608;2023-01-31T19:46:20;24.83;;;11.80;;
52360;SDS011;38294;42.966;1.608;2023-01-31T19:48:48;22.02;;;11.88;;
52360;SDS011;38294;42.966;1.608;2023-01-31T19:51:14;20.60;;;11.30;;
52360;SDS011;38294;42.966;1.608;2023-01-31T19:53:41;23.63;;;12.05;;
52360;SDS011;38294;42.966;1.608;2023-01-31T19:56:08;25.42;;;12.65;;
52360;SDS011;38294;42.966;1.608;2023-01-31T19:58:34;22.85;;;12.30;;
52360;SDS011;38294;42.966;1.608;2023-01-31T20:01:00;23.05;;;11.52;;
52360;SDS011;38294;42.966;1.608;2023-01-31T20:03:28;24.60;;;11.43;;
52360;SDS011;38294;42.966;1.608;2023-01-31T20:05:58;22.58;;;11.45;;
52360;SDS011;38294;42.966;1.608;2023-01-31T20:08:25;26.38;;;11.73;;
52360;SDS011;38294;42.966;1.608;2023-01-31T20:10:53;26.13;;;10.73;;
52360;SDS011;38294;42.966;1.608;2023-01-31T20:13:19;37.60;;;16.65;;
52360;SDS011;38294;42.966;1.608;2023-01-31T20:15:44;21.10;;;10.90;;
52360;SDS011;38294;42.966;1.608;2023-01-31T20:18:10;28.42;;;10.82;;
52360;SDS011;38294;42.966;1.608;2023-01-31T20:20:36;20.90;;;10.38;;
52360;SDS011;38294;42.966;1.608;2023-01-31T20:23:02;19.63;;;9.88;;
52360;SDS011;38294;42.966;1.608;2023-01-31T20:25:28;22.70;;;10.68;;
52360;SDS011;38294;42.966;1.608;2023-01-31T20:27:53;18.52;;;9.40;;
52360;SDS011;38294;42.966;1.608;2023-01-31T20:30:19;20.52;;;10.35;;
52360;SDS011;38294;42.966;1.608;2023-01-31T20:32:47;17.00;;;8.90;;
52360;SDS011;38294;42.966;1.608;2023-01-31T20:35:14;18.52;;;8.82;;
52360;SDS011;38294;42.966;1.608;2023-01-31T20:37:40;16.98;;;8.10;;
52360;SDS011;38294;42.966;1.608;2023-01-31T20:40:06;29.85;;;12.60;;
52360;SDS011;38294;42.966;1.608;2023-01-31T20:42:32;18.92;;;8.98;;
52360;SDS011;38294;42.966;1.608;2023-01-31T20:44:58;15.38;;;8.20;;
52360;SDS011;38294;42.966;1.608;2023-01-31T20:47:24;15.55;;;8.55;;